NC63 weather

Robertson Field
Winston Salem, North Carolina, United States

Public forecast

Using degrees Fahrenheit for public forecast. Weather courtesy of forecast.io.

METAR (pilot weather report)

Closest report is Smith Reynolds Airport, 1.8 nm (3.3 km) W. Retrieved 2019/09/15 08:14 UTC (26 minutes ago):

KINT 150814Z AUTO 00000KT 10SM OVC030 22/20 A3018 RMK AO2 T02220200

TAF (pilot weather forecast)

Closest forecast is Smith Reynolds Airport, 1.8 nm (3.3 km) W. Retrieved 2019/09/15 06:33 UTC (2 hours ago):

TAF KINT 150530Z 1506/1606 00000KT P6SM SCT250 FM151100 00000KT 4SM BR SCT025 FM151300 03004KT P6SM BKN035 FM151800 04003KT P6SM SKC